createdAt,value
2018-06-12T00:01:40.379Z,15.30
2018-06-12T00:04:08.598Z,15.30
2018-06-12T00:06:36.820Z,15.30
2018-06-12T00:09:06.689Z,15.40
2018-06-12T00:11:34.991Z,15.40
2018-06-12T00:14:03.224Z,15.40
2018-06-12T00:16:31.864Z,15.40
2018-06-12T00:19:01.644Z,15.40
2018-06-12T00:21:30.566Z,15.40
2018-06-12T00:23:59.619Z,15.40
2018-06-12T00:26:27.892Z,15.50
2018-06-12T00:28:56.108Z,15.50
2018-06-12T00:31:25.287Z,15.50
2018-06-12T00:33:53.760Z,15.50
2018-06-12T00:36:22.017Z,15.50
2018-06-12T00:38:50.284Z,15.50
2018-06-12T00:41:18.527Z,15.50
2018-06-12T00:43:46.768Z,15.50
2018-06-12T00:46:15.009Z,15.50
2018-06-12T00:48:43.235Z,15.50
2018-06-12T00:51:11.493Z,15.50
2018-06-12T00:53:39.777Z,15.50
2018-06-12T00:56:08.117Z,15.50
2018-06-12T00:58:36.359Z,15.50
2018-06-12T01:01:04.596Z,15.40
2018-06-12T01:03:32.896Z,15.40
2018-06-12T01:06:01.170Z,15.40
2018-06-12T01:08:29.407Z,15.40
2018-06-12T01:10:57.620Z,15.40
2018-06-12T01:13:25.862Z,15.40
2018-06-12T01:15:54.099Z,15.40
2018-06-12T01:18:22.427Z,15.40
2018-06-12T01:20:50.655Z,15.50
2018-06-12T01:23:18.937Z,15.50
2018-06-12T01:25:47.228Z,15.50
2018-06-12T01:28:15.440Z,15.50
2018-06-12T01:30:43.725Z,15.50
2018-06-12T01:33:12.200Z,15.60
2018-06-12T01:35:40.579Z,15.50
2018-06-12T01:38:08.820Z,15.50
2018-06-12T01:40:42.009Z,15.50
2018-06-12T01:43:10.243Z,15.40
2018-06-12T01:45:38.873Z,15.50
2018-06-12T01:48:07.159Z,15.50
2018-06-12T01:50:35.351Z,15.50
2018-06-12T01:53:03.989Z,15.50
2018-06-12T01:55:32.244Z,15.60
2018-06-12T01:58:00.513Z,15.60
2018-06-12T02:00:29.068Z,15.60
2018-06-12T02:02:57.340Z,15.60
2018-06-12T02:05:25.595Z,15.60
2018-06-12T02:07:53.906Z,15.60
2018-06-12T02:10:22.124Z,15.70
2018-06-12T02:12:50.379Z,15.70
2018-06-12T02:15:18.656Z,15.80
2018-06-12T02:17:46.957Z,15.70
2018-06-12T02:20:15.175Z,15.70
2018-06-12T02:22:43.445Z,15.70
2018-06-12T02:25:11.684Z,15.70
2018-06-12T02:27:40.023Z,15.70
2018-06-12T02:30:08.281Z,15.70
2018-06-12T02:32:36.847Z,15.70
2018-06-12T02:35:05.200Z,15.80
2018-06-12T02:37:34.289Z,15.80
2018-06-12T02:40:02.746Z,15.80
2018-06-12T02:42:30.967Z,15.90
2018-06-12T02:44:59.215Z,15.90
2018-06-12T02:47:27.463Z,15.80
2018-06-12T02:49:55.931Z,15.90
2018-06-12T02:52:24.175Z,15.80
2018-06-12T02:54:52.410Z,15.80
2018-06-12T02:57:21.642Z,15.80
2018-06-12T02:59:49.886Z,15.80
2018-06-12T03:02:18.109Z,15.80
2018-06-12T03:04:46.335Z,15.70
2018-06-12T03:07:14.805Z,15.70
2018-06-12T03:09:46.251Z,15.80
2018-06-12T03:12:14.500Z,15.80
2018-06-12T03:14:43.024Z,15.70
2018-06-12T03:17:11.287Z,15.80
2018-06-12T03:19:39.517Z,15.80
2018-06-12T03:22:08.028Z,15.80
2018-06-12T03:24:36.279Z,15.80
2018-06-12T03:27:04.499Z,15.80
2018-06-12T03:29:32.739Z,15.80
2018-06-12T03:32:00.995Z,15.80
2018-06-12T03:34:29.409Z,15.80
2018-06-12T03:36:58.468Z,15.80
2018-06-12T03:39:27.031Z,15.80
2018-06-12T03:41:55.626Z,15.80
2018-06-12T03:44:24.015Z,15.80
2018-06-12T03:46:52.232Z,15.80
2018-06-12T03:49:20.431Z,15.80
2018-06-12T03:51:50.565Z,15.90
2018-06-12T03:54:18.984Z,15.90
2018-06-12T03:56:47.260Z,15.90
2018-06-12T03:59:15.475Z,16.00
2018-06-12T04:01:43.731Z,15.90
2018-06-12T04:04:13.438Z,15.90
2018-06-12T04:06:41.695Z,15.90
2018-06-12T04:09:10.183Z,16.00
2018-06-12T04:11:38.461Z,16.00
2018-06-12T04:14:06.710Z,15.90
2018-06-12T04:16:37.589Z,15.90
2018-06-12T04:19:06.944Z,15.90
2018-06-12T04:21:35.797Z,15.80
2018-06-12T04:24:04.048Z,15.80
2018-06-12T04:26:32.275Z,15.80
2018-06-12T04:29:02.171Z,15.80
2018-06-12T04:31:30.427Z,15.70
2018-06-12T04:33:58.649Z,15.70
2018-06-12T04:36:26.904Z,15.70
2018-06-12T04:38:56.068Z,15.60
2018-06-12T04:41:24.793Z,15.60
2018-06-12T04:43:53.115Z,15.50
2018-06-12T04:46:21.480Z,15.60
2018-06-12T04:48:49.685Z,15.50
2018-06-12T04:51:17.924Z,15.50
2018-06-12T04:53:46.166Z,15.50
2018-06-12T04:56:14.374Z,15.40
2018-06-12T04:58:42.988Z,15.40
2018-06-12T05:01:11.259Z,15.40
2018-06-12T05:03:39.613Z,15.40
2018-06-12T05:06:07.827Z,15.40
2018-06-12T05:08:36.081Z,15.40
2018-06-12T05:11:04.327Z,15.40
2018-06-12T05:13:32.600Z,15.50
2018-06-12T05:16:00.919Z,15.50
2018-06-12T05:18:29.134Z,15.60
2018-06-12T05:20:57.347Z,15.70
2018-06-12T05:23:25.612Z,15.70
2018-06-12T05:25:53.872Z,15.60
2018-06-12T05:28:22.137Z,15.70
2018-06-12T05:30:50.345Z,15.70
2018-06-12T05:33:18.587Z,15.70
2018-06-12T05:35:46.854Z,15.70
2018-06-12T05:38:22.287Z,15.80
2018-06-12T05:40:50.602Z,15.80
2018-06-12T05:43:18.854Z,15.80
2018-06-12T05:45:47.821Z,15.80
2018-06-12T05:48:16.928Z,15.70
2018-06-12T05:50:45.198Z,15.70
2018-06-12T05:53:13.431Z,15.70
2018-06-12T05:55:42.614Z,15.70
2018-06-12T05:58:10.810Z,15.70
2018-06-12T06:00:39.072Z,15.60
2018-06-12T06:03:07.350Z,15.70
2018-06-12T06:05:35.836Z,15.70
2018-06-12T06:08:04.045Z,15.70
2018-06-12T06:10:32.246Z,15.70
2018-06-12T06:13:00.536Z,15.80
2018-06-12T06:15:28.811Z,15.80
2018-06-12T06:17:57.228Z,15.80
2018-06-12T06:20:25.502Z,15.70
2018-06-12T06:22:53.726Z,15.70
2018-06-12T06:25:21.976Z,15.70
2018-06-12T06:27:50.192Z,15.70
2018-06-12T06:30:18.468Z,15.80
2018-06-12T06:32:46.754Z,15.80
2018-06-12T06:35:14.986Z,15.80
2018-06-12T06:37:43.228Z,15.80
2018-06-12T06:40:11.476Z,15.90
2018-06-12T06:42:39.712Z,15.90
2018-06-12T06:45:07.971Z,16.00
2018-06-12T06:47:36.207Z,16.10
2018-06-12T06:50:04.584Z,16.20
2018-06-12T06:52:32.822Z,16.20
2018-06-12T06:55:01.296Z,16.30
2018-06-12T06:57:29.529Z,16.30
2018-06-12T06:59:57.756Z,16.10
2018-06-12T07:02:26.004Z,15.90
2018-06-12T07:04:54.267Z,15.90
2018-06-12T07:07:22.786Z,15.90
2018-06-12T07:09:51.011Z,15.90
2018-06-12T07:12:19.450Z,15.90
2018-06-12T07:14:47.678Z,15.80
2018-06-12T07:17:15.963Z,15.80
2018-06-12T07:19:44.209Z,15.80
2018-06-12T07:22:12.696Z,15.70
2018-06-12T07:24:40.894Z,15.70
2018-06-12T07:27:09.195Z,15.70
2018-06-12T07:29:37.454Z,15.80
2018-06-12T07:32:05.676Z,15.80
2018-06-12T07:34:33.857Z,15.70
2018-06-12T07:37:02.136Z,15.70
2018-06-12T07:39:30.396Z,15.80
2018-06-12T07:41:58.630Z,15.90
2018-06-12T07:44:26.894Z,15.80
2018-06-12T07:46:55.159Z,15.80
2018-06-12T07:49:23.465Z,15.60
2018-06-12T07:51:51.733Z,15.60
2018-06-12T07:54:20.022Z,15.50
2018-06-12T07:56:48.343Z,15.50
2018-06-12T07:59:16.745Z,15.50
2018-06-12T08:01:45.010Z,15.50
2018-06-12T08:04:13.257Z,15.40
2018-06-12T08:06:41.506Z,15.40
2018-06-12T08:09:09.713Z,15.30
2018-06-12T08:11:37.993Z,15.30
2018-06-12T08:14:06.290Z,15.30
2018-06-12T08:16:34.585Z,15.20
2018-06-12T08:19:02.885Z,15.20
2018-06-12T08:21:31.418Z,15.10
2018-06-12T08:23:59.726Z,15.20
2018-06-12T08:26:27.974Z,15.10
2018-06-12T08:28:56.692Z,15.10
2018-06-12T08:31:26.440Z,15.10
2018-06-12T08:33:54.992Z,15.20
2018-06-12T08:36:23.572Z,15.30
2018-06-12T08:38:51.806Z,15.30
2018-06-12T08:41:20.567Z,15.40
2018-06-12T08:43:48.836Z,15.40
2018-06-12T08:46:17.107Z,15.50
2018-06-12T08:48:45.611Z,15.70
2018-06-12T08:51:13.859Z,15.80
2018-06-12T08:53:42.120Z,15.80
2018-06-12T08:56:10.375Z,16.00
2018-06-12T08:58:38.642Z,16.10
2018-06-12T09:01:06.903Z,16.10
2018-06-12T09:03:35.175Z,16.00
2018-06-12T09:06:03.429Z,15.90
2018-06-12T09:08:31.679Z,15.70
2018-06-12T09:10:59.892Z,15.50
2018-06-12T09:13:28.139Z,15.50
2018-06-12T09:15:56.395Z,15.60
2018-06-12T09:18:24.621Z,15.70
2018-06-12T09:23:20.850Z,15.40
2018-06-12T09:25:49.121Z,15.40
2018-06-12T09:28:19.703Z,15.30
2018-06-12T09:30:48.367Z,15.30
2018-06-12T09:33:16.632Z,15.20
2018-06-12T09:35:44.912Z,15.20
2018-06-12T09:38:13.180Z,15.20
2018-06-12T09:40:41.596Z,15.30
2018-06-12T09:43:09.835Z,15.30
2018-06-12T09:45:38.264Z,15.30
2018-06-12T09:48:06.571Z,15.30
2018-06-12T09:50:35.204Z,15.40
2018-06-12T09:53:07.044Z,15.40
2018-06-12T09:55:36.007Z,15.50
2018-06-12T09:58:04.417Z,15.60
2018-06-12T10:00:38.093Z,15.70
2018-06-12T10:03:06.453Z,15.60
2018-06-12T10:05:34.641Z,15.70
2018-06-12T10:08:02.909Z,15.90
2018-06-12T10:10:31.186Z,15.90
2018-06-12T10:12:59.448Z,16.10
2018-06-12T10:15:27.722Z,16.10
2018-06-12T10:17:56.311Z,16.10
2018-06-12T10:20:24.551Z,16.00
2018-06-12T10:22:52.861Z,16.00
2018-06-12T10:25:21.067Z,15.90
2018-06-12T10:27:49.317Z,15.70
2018-06-12T10:30:17.867Z,15.70
2018-06-12T10:32:46.148Z,15.70
2018-06-12T10:35:14.427Z,15.70
2018-06-12T10:37:42.906Z,15.70
2018-06-12T10:40:11.180Z,15.80
2018-06-12T10:42:39.412Z,15.80
2018-06-12T10:45:07.669Z,15.90
2018-06-12T10:47:35.911Z,16.10
2018-06-12T10:50:04.222Z,16.20
2018-06-12T10:52:32.424Z,16.30
2018-06-12T10:55:00.688Z,16.60
2018-06-12T10:57:28.958Z,16.70
2018-06-12T10:59:57.308Z,16.80
2018-06-12T11:02:25.596Z,16.80
2018-06-12T11:04:53.808Z,16.70
2018-06-12T11:07:22.129Z,16.60
2018-06-12T11:09:50.339Z,16.70
2018-06-12T11:12:19.484Z,16.70
2018-06-12T11:14:47.735Z,16.60
2018-06-12T11:17:17.120Z,16.50
2018-06-12T11:19:45.606Z,16.30
2018-06-12T11:22:14.264Z,16.30
2018-06-12T11:24:42.520Z,16.30
2018-06-12T11:27:10.748Z,16.50
2018-06-12T11:29:38.999Z,16.90
2018-06-12T11:32:07.279Z,17.00
2018-06-12T11:34:35.565Z,17.00
2018-06-12T11:37:03.800Z,17.20
2018-06-12T11:39:32.124Z,17.30
2018-06-12T11:42:00.370Z,17.40
2018-06-12T11:44:28.644Z,17.50
2018-06-12T11:46:56.920Z,17.50
2018-06-12T11:49:25.117Z,17.50
2018-06-12T11:51:53.382Z,17.60
2018-06-12T11:54:21.690Z,17.70
2018-06-12T11:56:49.959Z,18.00
2018-06-12T12:01:46.225Z,18.60
2018-06-12T12:04:14.532Z,19.30
2018-06-12T12:06:42.744Z,19.80
2018-06-12T12:09:10.983Z,20.10
2018-06-12T12:11:39.258Z,20.10
2018-06-12T12:14:10.525Z,20.00
2018-06-12T12:16:38.791Z,19.40
2018-06-12T12:19:07.128Z,19.30
2018-06-12T12:21:35.368Z,19.00
2018-06-12T12:24:03.631Z,18.50
2018-06-12T12:26:31.888Z,18.20
2018-06-12T12:29:05.215Z,18.20
2018-06-12T12:31:33.456Z,18.20
2018-06-12T12:34:01.809Z,18.20
2018-06-12T12:36:30.067Z,18.30
2018-06-12T12:38:58.314Z,18.20
2018-06-12T12:41:26.589Z,18.10
2018-06-12T12:43:54.899Z,18.20
2018-06-12T12:46:23.911Z,18.30
2018-06-12T12:48:52.292Z,18.30
2018-06-12T12:51:20.627Z,18.50
2018-06-12T12:53:48.865Z,18.90
2018-06-12T12:56:17.216Z,19.20
2018-06-12T12:58:45.450Z,19.40
2018-06-12T13:01:13.687Z,19.60
2018-06-12T13:03:42.015Z,19.90
2018-06-12T13:06:10.232Z,19.60
2018-06-12T13:08:38.431Z,19.60
2018-06-12T13:11:06.790Z,19.10
2018-06-12T13:13:35.146Z,18.80
2018-06-12T13:16:03.427Z,18.70
2018-06-12T13:18:31.767Z,18.60
2018-06-12T13:21:00.475Z,18.50
2018-06-12T13:23:28.731Z,18.50
2018-06-12T13:25:56.955Z,18.40
2018-06-12T13:28:25.192Z,18.40
2018-06-12T13:30:53.507Z,18.50
2018-06-12T13:33:22.567Z,18.60
2018-06-12T13:35:51.163Z,18.60
2018-06-12T13:40:47.801Z,19.10
2018-06-12T13:43:16.585Z,19.50
2018-06-12T13:45:44.816Z,19.70
2018-06-12T13:48:13.016Z,19.60
2018-06-12T13:50:41.371Z,19.70
2018-06-12T13:53:09.579Z,19.50
2018-06-12T13:55:37.872Z,19.20
2018-06-12T13:58:06.125Z,18.90
2018-06-12T14:00:34.397Z,18.70
2018-06-12T14:03:02.732Z,18.70
2018-06-12T14:05:31.120Z,18.70
2018-06-12T14:07:59.356Z,18.60
2018-06-12T14:10:27.915Z,18.60
2018-06-12T14:12:56.194Z,18.60
2018-06-12T14:15:24.419Z,18.60
2018-06-12T14:17:55.515Z,18.70
2018-06-12T14:20:23.781Z,18.70
2018-06-12T14:22:52.076Z,18.60
2018-06-12T14:25:22.428Z,18.60
2018-06-12T14:27:50.810Z,18.80
2018-06-12T14:30:19.047Z,18.70
2018-06-12T14:32:47.299Z,18.70
2018-06-12T14:35:15.520Z,18.60
2018-06-12T14:37:44.886Z,18.70
2018-06-12T14:40:13.895Z,18.50
2018-06-12T14:42:42.160Z,18.50
2018-06-12T14:45:11.475Z,18.50
2018-06-12T14:47:39.778Z,18.40
2018-06-12T14:52:36.410Z,18.40
2018-06-12T14:55:04.628Z,18.30
2018-06-12T14:57:32.845Z,18.30
2018-06-12T15:00:01.424Z,18.30
2018-06-12T15:02:29.645Z,18.30
2018-06-12T15:04:57.918Z,18.30
2018-06-12T15:07:26.183Z,18.20
2018-06-12T15:09:54.447Z,18.10
2018-06-12T15:12:23.338Z,18.10
2018-06-12T15:14:51.550Z,18.10
2018-06-12T15:17:19.951Z,18.00
2018-06-12T15:19:48.159Z,18.00
2018-06-12T15:22:16.388Z,17.90
2018-06-12T15:24:44.628Z,17.90
2018-06-12T15:27:12.843Z,17.90
2018-06-12T15:29:41.105Z,17.90
2018-06-12T15:32:09.332Z,18.00
2018-06-12T15:34:37.607Z,17.90
2018-06-12T15:37:06.018Z,18.00
2018-06-12T15:39:34.240Z,18.00
2018-06-12T15:42:02.515Z,18.00
2018-06-12T15:44:31.599Z,18.00
2018-06-12T15:46:59.849Z,18.00
2018-06-12T15:49:28.924Z,18.00
2018-06-12T15:51:57.173Z,18.20
2018-06-12T15:54:25.439Z,18.20
2018-06-12T15:56:53.657Z,18.40
2018-06-12T15:59:22.304Z,18.60
2018-06-12T16:01:50.527Z,18.70
2018-06-12T16:04:18.711Z,18.80
2018-06-12T16:06:47.439Z,18.80
2018-06-12T16:09:17.835Z,18.70
2018-06-12T16:11:46.060Z,18.70
2018-06-12T16:14:14.340Z,18.70
2018-06-12T16:16:42.559Z,19.00
2018-06-12T16:19:10.854Z,19.10
2018-06-12T16:21:39.353Z,19.20
2018-06-12T16:24:08.728Z,19.10
2018-06-12T16:26:36.967Z,19.00
2018-06-12T16:29:05.270Z,18.90
2018-06-12T16:31:33.723Z,18.70
2018-06-12T16:36:11.497Z,18.40
2018-06-12T16:38:39.697Z,18.30
2018-06-12T16:41:07.907Z,18.30
2018-06-12T16:43:36.160Z,18.20
2018-06-12T16:46:04.596Z,18.20
2018-06-12T16:48:33.127Z,18.10
2018-06-12T16:51:01.412Z,18.10
2018-06-12T16:53:29.647Z,18.00
2018-06-12T16:55:57.887Z,18.00
2018-06-12T16:58:26.072Z,18.00
2018-06-12T17:00:54.323Z,18.00
2018-06-12T17:03:22.598Z,17.90
2018-06-12T17:05:50.862Z,17.90
2018-06-12T17:08:19.059Z,17.80
2018-06-12T17:10:47.279Z,17.80
2018-06-12T17:13:15.563Z,17.70
2018-06-12T17:15:44.042Z,17.60
2018-06-12T17:18:12.315Z,17.60
2018-06-12T17:20:41.151Z,17.60
2018-06-12T17:23:09.375Z,17.60
2018-06-12T17:25:37.602Z,17.60
2018-06-12T17:28:05.882Z,17.60
2018-06-12T17:30:34.336Z,17.60
2018-06-12T17:33:03.008Z,17.60
2018-06-12T17:35:31.380Z,17.60
2018-06-12T17:37:59.618Z,17.60
2018-06-12T17:40:27.914Z,17.50
2018-06-12T17:42:56.175Z,17.60
2018-06-12T17:45:24.895Z,17.60
2018-06-12T17:47:55.216Z,17.70
2018-06-12T17:50:23.464Z,17.70
2018-06-12T17:52:51.810Z,17.70
2018-06-12T17:55:20.085Z,17.60
2018-06-12T17:57:48.329Z,17.60
2018-06-12T18:00:16.555Z,17.60
2018-06-12T18:02:45.429Z,17.50
2018-06-12T18:05:13.707Z,17.50
2018-06-12T18:07:41.959Z,17.40
2018-06-12T18:10:10.584Z,17.40
2018-06-12T18:12:38.887Z,17.30
2018-06-12T18:15:07.183Z,17.30
2018-06-12T18:17:35.363Z,17.30
2018-06-12T18:20:03.623Z,17.30
2018-06-12T18:22:32.024Z,17.20
2018-06-12T18:27:34.880Z,17.20
2018-06-12T18:30:05.208Z,17.10
2018-06-12T18:32:33.491Z,17.10
2018-06-12T18:35:01.760Z,17.20
2018-06-12T18:37:30.024Z,17.20
2018-06-12T18:39:58.271Z,17.20
2018-06-12T18:42:26.488Z,17.20
2018-06-12T18:44:55.235Z,17.20
2018-06-12T18:47:23.476Z,17.20
2018-06-12T18:49:52.093Z,17.20
2018-06-12T18:52:20.363Z,17.10
2018-06-12T18:54:49.139Z,16.90
2018-06-12T18:57:17.492Z,16.70
2018-06-12T18:59:46.564Z,16.60
2018-06-12T19:02:17.340Z,16.60
2018-06-12T19:04:46.379Z,16.60
2018-06-12T19:07:15.057Z,16.60
2018-06-12T19:09:43.398Z,16.70
2018-06-12T19:12:11.619Z,16.70
2018-06-12T19:14:39.862Z,16.80
2018-06-12T19:17:08.158Z,16.80
2018-06-12T19:19:36.395Z,16.80
2018-06-12T19:24:32.726Z,16.80
2018-06-12T19:27:01.256Z,16.80
2018-06-12T19:29:29.525Z,16.80
2018-06-12T19:31:57.829Z,16.80
2018-06-12T19:34:26.116Z,16.70
2018-06-12T19:36:54.360Z,16.80
2018-06-12T19:39:22.954Z,16.70
2018-06-12T19:41:51.155Z,16.60
2018-06-12T19:44:19.371Z,16.60
2018-06-12T19:46:47.685Z,16.60
2018-06-12T19:49:16.574Z,16.60
2018-06-12T19:51:46.384Z,16.60
2018-06-12T19:54:14.643Z,16.60
2018-06-12T19:56:42.893Z,16.60
2018-06-12T19:59:11.155Z,16.60
2018-06-12T20:01:39.427Z,16.60
2018-06-12T20:04:07.706Z,16.60
2018-06-12T20:06:35.936Z,16.60
2018-06-12T20:09:06.789Z,16.50
2018-06-12T20:11:35.025Z,16.50
2018-06-12T20:14:03.272Z,16.60
2018-06-12T20:16:31.755Z,16.50
2018-06-12T20:19:00.057Z,16.60
2018-06-12T20:21:29.100Z,16.50
2018-06-12T20:24:03.073Z,16.50
2018-06-12T20:26:31.497Z,16.40
2018-06-12T20:28:59.993Z,16.40
2018-06-12T20:31:28.422Z,16.40
2018-06-12T20:33:56.808Z,16.40
2018-06-12T20:36:25.354Z,16.30
2018-06-12T20:38:53.636Z,16.40
2018-06-12T20:43:50.309Z,16.40
2018-06-12T20:46:19.178Z,16.40
2018-06-12T20:48:47.443Z,16.30
2018-06-12T20:51:15.859Z,16.30
2018-06-12T20:53:44.873Z,16.20
2018-06-12T20:56:13.367Z,16.20
2018-06-12T20:58:41.551Z,16.20
2018-06-12T21:01:09.787Z,16.20
2018-06-12T21:03:38.099Z,16.20
2018-06-12T21:06:06.404Z,16.20
2018-06-12T21:08:35.966Z,16.20
2018-06-12T21:11:04.363Z,16.10
2018-06-12T21:13:35.008Z,16.20
2018-06-12T21:16:03.369Z,16.20
2018-06-12T21:18:31.670Z,16.20
2018-06-12T21:21:00.123Z,16.20
2018-06-12T21:23:28.359Z,16.30
2018-06-12T21:25:56.795Z,16.30
2018-06-12T21:28:25.294Z,16.20
2018-06-12T21:30:53.550Z,16.20
2018-06-12T21:33:21.850Z,16.20
2018-06-12T21:35:50.092Z,16.20
2018-06-12T21:38:18.320Z,16.20
2018-06-12T21:40:46.863Z,16.30
2018-06-12T21:43:15.107Z,16.20
2018-06-12T21:45:43.363Z,16.20
2018-06-12T21:48:11.579Z,16.20
2018-06-12T21:50:40.044Z,16.10
2018-06-12T21:53:08.318Z,16.20
2018-06-12T21:55:36.720Z,16.10
2018-06-12T21:58:04.950Z,16.00
2018-06-12T22:00:34.423Z,16.00
2018-06-12T22:05:30.636Z,16.00
2018-06-12T22:07:59.169Z,16.00
2018-06-12T22:10:27.489Z,16.00
2018-06-12T22:12:55.720Z,15.90
2018-06-12T22:15:23.991Z,15.90
2018-06-12T22:17:53.335Z,15.90
2018-06-12T22:20:21.594Z,15.90
2018-06-12T22:22:51.777Z,15.90
2018-06-12T22:25:20.256Z,15.90
2018-06-12T22:27:48.551Z,15.90
2018-06-12T22:30:16.783Z,15.90
2018-06-12T22:32:45.156Z,15.90
2018-06-12T22:35:13.619Z,15.80
2018-06-12T22:37:41.959Z,15.80
2018-06-12T22:40:10.178Z,15.80
2018-06-12T22:42:38.410Z,15.80
2018-06-12T22:45:06.676Z,15.80
2018-06-12T22:47:34.975Z,15.80
2018-06-12T22:50:03.332Z,15.70
2018-06-12T22:52:31.600Z,15.70
2018-06-12T22:54:59.977Z,15.70
2018-06-12T22:57:28.344Z,15.70
2018-06-12T22:59:56.586Z,15.80
2018-06-12T23:02:25.732Z,15.70
2018-06-12T23:04:54.004Z,15.70
2018-06-12T23:07:22.287Z,15.70
2018-06-12T23:09:50.538Z,15.60
2018-06-12T23:12:18.867Z,15.60
2018-06-12T23:14:47.154Z,15.70
2018-06-12T23:17:15.384Z,15.60
2018-06-12T23:19:55.040Z,15.50
2018-06-12T23:22:23.371Z,15.50
2018-06-12T23:24:51.656Z,15.40
2018-06-12T23:27:19.917Z,15.40
2018-06-12T23:29:48.227Z,15.40
2018-06-12T23:32:18.111Z,15.30
2018-06-12T23:34:46.395Z,15.30
2018-06-12T23:37:14.671Z,15.30
2018-06-12T23:39:42.972Z,15.30
2018-06-12T23:42:11.210Z,15.30
2018-06-12T23:44:39.487Z,15.30
2018-06-12T23:47:07.759Z,15.20
2018-06-12T23:49:36.022Z,15.30
2018-06-12T23:52:04.286Z,15.30
2018-06-12T23:54:32.729Z,15.30
2018-06-12T23:57:01.004Z,15.30
2018-06-12T23:59:29.484Z,15.30
